createdAt,value
2018-02-24T00:00:31.174Z,0.00
2018-02-24T00:01:31.317Z,0.00
2018-02-24T00:02:31.045Z,0.00
2018-02-24T00:03:31.034Z,0.00
2018-02-24T00:04:30.838Z,0.00
2018-02-24T00:05:30.751Z,0.00
2018-02-24T00:06:30.656Z,0.00
2018-02-24T00:07:30.597Z,0.00
2018-02-24T00:08:30.506Z,0.00
2018-02-24T00:09:30.407Z,0.00
2018-02-24T00:10:30.322Z,0.00
2018-02-24T00:11:30.259Z,0.00
2018-02-24T00:12:30.163Z,0.00
2018-02-24T00:13:30.212Z,0.00
2018-02-24T00:14:30.005Z,0.00
2018-02-24T00:15:29.900Z,0.00
2018-02-24T00:16:29.813Z,0.00
2018-02-24T00:17:29.745Z,0.00
2018-02-24T00:18:29.658Z,0.00
2018-02-24T00:19:29.570Z,0.00
2018-02-24T00:20:29.470Z,0.00
2018-02-24T00:21:29.400Z,0.00
2018-02-24T00:22:29.293Z,0.00
2018-02-24T00:23:29.251Z,0.00
2018-02-24T00:24:29.126Z,0.00
2018-02-24T00:25:29.072Z,0.00
2018-02-24T00:26:28.959Z,0.00
2018-02-24T00:27:28.887Z,0.00
2018-02-24T00:28:28.809Z,0.00
2018-02-24T00:29:28.719Z,0.00
2018-02-24T00:30:28.635Z,0.00
2018-02-24T00:31:28.586Z,0.00
2018-02-24T00:32:28.452Z,0.00
2018-02-24T00:33:28.417Z,0.00
2018-02-24T00:34:28.279Z,0.00
2018-02-24T00:35:28.214Z,0.00
2018-02-24T00:36:28.106Z,0.00
2018-02-24T00:37:28.029Z,0.00
2018-02-24T00:38:27.979Z,0.00
2018-02-24T00:39:28.053Z,0.00
2018-02-24T00:40:27.771Z,0.00
2018-02-24T00:41:27.696Z,0.00
2018-02-24T00:42:27.595Z,0.00
2018-02-24T00:43:27.559Z,0.00
2018-02-24T00:44:27.420Z,0.00
2018-02-24T00:45:27.381Z,0.00
2018-02-24T00:46:27.267Z,0.00
2018-02-24T00:47:27.178Z,0.00
2018-02-24T00:48:27.083Z,0.00
2018-02-24T00:49:27.035Z,0.00
2018-02-24T00:50:26.940Z,0.00
2018-02-24T00:51:26.839Z,0.00
2018-02-24T00:52:26.836Z,0.00
2018-02-24T00:53:26.679Z,0.00
2018-02-24T00:54:26.594Z,0.00
2018-02-24T00:55:26.491Z,0.00
2018-02-24T00:56:26.415Z,0.00
2018-02-24T00:57:26.326Z,0.00
2018-02-24T00:58:26.239Z,0.00
2018-02-24T00:59:26.181Z,0.00
2018-02-24T01:00:26.078Z,0.00
2018-02-24T01:01:25.999Z,0.00
2018-02-24T01:02:25.891Z,0.00
2018-02-24T01:03:25.848Z,0.00
2018-02-24T01:04:25.749Z,0.00
2018-02-24T01:05:25.652Z,0.00
2018-02-24T01:06:25.550Z,0.00
2018-02-24T01:07:25.480Z,0.00
2018-02-24T01:08:25.380Z,0.00
2018-02-24T01:09:25.337Z,0.00
2018-02-24T01:10:25.212Z,0.00
2018-02-24T01:11:25.172Z,0.00
2018-02-24T01:12:25.056Z,0.00
2018-02-24T01:13:24.970Z,0.00
2018-02-24T01:14:24.880Z,0.00
2018-02-24T01:15:24.799Z,0.00
2018-02-24T01:16:24.732Z,0.00
2018-02-24T01:17:24.623Z,0.00
2018-02-24T01:18:24.526Z,0.00
2018-02-24T01:19:24.458Z,0.00
2018-02-24T01:21:25.374Z,0.00
2018-02-24T01:22:25.252Z,0.00
2018-02-24T01:23:25.183Z,0.00
2018-02-24T01:24:25.150Z,0.00
2018-02-24T01:25:25.016Z,0.00
2018-02-24T01:26:24.940Z,0.00
2018-02-24T01:27:24.835Z,0.00
2018-02-24T01:28:24.752Z,0.00
2018-02-24T01:29:24.670Z,0.00
2018-02-24T01:30:24.575Z,0.00
2018-02-24T01:31:24.514Z,0.00
2018-02-24T01:32:24.421Z,0.00
2018-02-24T01:33:24.353Z,0.00
2018-02-24T01:34:24.232Z,0.00
2018-02-24T01:35:24.173Z,0.00
2018-02-24T01:36:24.081Z,0.00
2018-02-24T01:37:24.009Z,0.00
2018-02-24T01:38:23.891Z,0.00
2018-02-24T01:39:23.816Z,0.00
2018-02-24T01:40:23.715Z,0.00
2018-02-24T01:41:23.649Z,0.00
2018-02-24T01:42:23.575Z,0.00
2018-02-24T01:43:23.481Z,0.00
2018-02-24T01:44:23.379Z,0.00
2018-02-24T01:45:23.302Z,0.00
2018-02-24T01:46:23.215Z,0.00
2018-02-24T01:47:23.129Z,0.00
2018-02-24T01:48:23.055Z,0.00
2018-02-24T01:49:22.966Z,0.00
2018-02-24T01:50:22.867Z,0.00
2018-02-24T01:51:22.801Z,0.00
2018-02-24T01:52:22.694Z,0.00
2018-02-24T01:53:22.636Z,0.00
2018-02-24T01:54:22.522Z,0.00
2018-02-24T01:55:22.453Z,0.00
2018-02-24T01:56:22.350Z,0.00
2018-02-24T01:57:22.302Z,0.00
2018-02-24T01:58:22.222Z,0.00
2018-02-24T01:59:22.132Z,0.00
2018-02-24T02:00:22.065Z,0.00
2018-02-24T02:01:21.949Z,0.00
2018-02-24T02:02:21.871Z,0.00
2018-02-24T02:03:21.908Z,0.00
2018-02-24T02:04:21.672Z,0.00
2018-02-24T02:05:21.594Z,0.00
2018-02-24T02:06:21.499Z,0.00
2018-02-24T02:07:21.434Z,0.00
2018-02-24T02:08:21.343Z,0.00
2018-02-24T02:09:21.277Z,0.00
2018-02-24T02:10:21.162Z,0.00
2018-02-24T02:11:21.099Z,0.00
2018-02-24T02:12:20.983Z,0.00
2018-02-24T02:13:21.028Z,0.00
2018-02-24T02:14:20.818Z,0.00
2018-02-24T02:15:21.370Z,0.00
2018-02-24T02:16:20.643Z,0.00
2018-02-24T02:17:20.568Z,0.00
2018-02-24T02:18:20.479Z,0.00
2018-02-24T02:19:20.421Z,0.00
2018-02-24T02:20:20.355Z,0.00
2018-02-24T02:21:20.243Z,0.00
2018-02-24T02:22:20.125Z,0.00
2018-02-24T02:23:20.064Z,0.00
2018-02-24T02:24:19.980Z,0.00
2018-02-24T02:25:19.884Z,0.00
2018-02-24T02:26:19.787Z,0.00
2018-02-24T02:27:19.724Z,0.00
2018-02-24T02:28:19.633Z,0.00
2018-02-24T02:29:19.577Z,0.00
2018-02-24T02:30:19.465Z,0.00
2018-02-24T02:31:19.402Z,0.00
2018-02-24T02:32:19.272Z,0.00
2018-02-24T02:33:19.291Z,0.00
2018-02-24T02:34:19.115Z,0.00
2018-02-24T02:35:19.024Z,0.00
2018-02-24T02:36:18.957Z,0.00
2018-02-24T02:37:18.869Z,0.00
2018-02-24T02:38:18.763Z,0.00
2018-02-24T02:39:18.690Z,0.00
2018-02-24T02:40:18.610Z,0.00
2018-02-24T02:41:18.550Z,0.00
2018-02-24T02:42:18.422Z,0.00
2018-02-24T02:43:18.337Z,0.00
2018-02-24T02:44:18.266Z,0.00
2018-02-24T02:45:18.171Z,0.00
2018-02-24T02:46:18.089Z,0.00
2018-02-24T02:47:18.024Z,0.00
2018-02-24T02:48:17.915Z,0.00
2018-02-24T02:49:17.865Z,0.00
2018-02-24T02:50:17.762Z,0.00
2018-02-24T02:51:17.659Z,0.00
2018-02-24T02:52:17.578Z,0.00
2018-02-24T02:53:17.553Z,0.00
2018-02-24T02:54:17.403Z,0.00
2018-02-24T02:55:17.317Z,0.00
2018-02-24T02:56:17.289Z,0.00
2018-02-24T02:57:17.156Z,0.00
2018-02-24T02:58:17.055Z,0.00
2018-02-24T02:59:16.983Z,0.00
2018-02-24T03:00:16.884Z,0.00
2018-02-24T03:01:16.833Z,0.00
2018-02-24T03:02:16.715Z,0.00
2018-02-24T03:03:16.643Z,0.00
2018-02-24T03:04:16.541Z,0.00
2018-02-24T03:05:16.477Z,0.00
2018-02-24T03:06:16.379Z,0.00
2018-02-24T03:07:16.313Z,0.00
2018-02-24T03:08:16.207Z,0.00
2018-02-24T03:09:16.129Z,0.00
2018-02-24T03:10:16.031Z,0.00
2018-02-24T03:11:15.957Z,0.00
2018-02-24T03:12:15.888Z,0.00
2018-02-24T03:13:15.876Z,0.00
2018-02-24T03:14:15.698Z,0.00
2018-02-24T03:15:15.622Z,0.00
2018-02-24T03:16:15.526Z,0.00
2018-02-24T03:17:15.457Z,0.00
2018-02-24T03:18:15.361Z,0.00
2018-02-24T03:19:15.292Z,0.00
2018-02-24T03:20:15.183Z,0.00
2018-02-24T03:21:15.102Z,0.00
2018-02-24T03:22:15.004Z,0.00
2018-02-24T03:23:15.016Z,0.00
2018-02-24T03:24:14.830Z,0.00
2018-02-24T03:25:14.768Z,0.00
2018-02-24T03:26:14.921Z,0.00
2018-02-24T03:27:14.585Z,0.00
2018-02-24T03:28:14.484Z,0.00
2018-02-24T03:29:14.438Z,0.00
2018-02-24T03:30:14.325Z,0.00
2018-02-24T03:31:14.244Z,0.00
2018-02-24T03:32:14.151Z,0.00
2018-02-24T03:33:14.090Z,0.00
2018-02-24T03:34:13.974Z,0.00
2018-02-24T03:35:13.906Z,0.00
2018-02-24T03:36:13.796Z,0.00
2018-02-24T03:37:13.732Z,0.00
2018-02-24T03:38:13.655Z,0.00
2018-02-24T03:39:13.567Z,0.00
2018-02-24T03:40:13.465Z,0.00
2018-02-24T03:41:13.381Z,0.00
2018-02-24T03:42:13.297Z,0.00
2018-02-24T03:43:13.353Z,0.00
2018-02-24T03:44:13.143Z,0.00
2018-02-24T03:45:13.044Z,0.00
2018-02-24T03:46:12.949Z,0.00
2018-02-24T03:47:12.871Z,0.00
2018-02-24T03:48:12.788Z,0.00
2018-02-24T03:49:12.718Z,0.00
2018-02-24T03:50:12.606Z,0.00
2018-02-24T03:51:12.532Z,0.00
2018-02-24T03:52:12.431Z,0.00
2018-02-24T03:53:12.388Z,0.00
2018-02-24T03:54:12.283Z,0.00
2018-02-24T03:55:12.192Z,0.00
2018-02-24T03:56:12.088Z,0.00
2018-02-24T03:57:12.017Z,0.00
2018-02-24T03:58:11.941Z,0.00
2018-02-24T03:59:11.842Z,0.00
2018-02-24T04:00:11.772Z,0.00
2018-02-24T04:01:11.672Z,0.00
2018-02-24T04:02:11.582Z,0.00
2018-02-24T04:03:11.529Z,0.00
2018-02-24T04:04:11.424Z,0.00
2018-02-24T04:05:11.337Z,0.00
2018-02-24T04:06:11.238Z,0.00
2018-02-24T04:07:11.158Z,0.00
2018-02-24T04:08:11.061Z,0.00
2018-02-24T04:09:11.004Z,0.00
2018-02-24T04:10:10.946Z,0.00
2018-02-24T04:11:10.816Z,0.00
2018-02-24T04:12:10.713Z,0.00
2018-02-24T04:13:10.713Z,0.00
2018-02-24T04:14:10.579Z,0.00
2018-02-24T04:15:10.472Z,0.00
2018-02-24T04:16:10.377Z,0.00
2018-02-24T04:17:10.308Z,0.00
2018-02-24T04:18:10.207Z,0.00
2018-02-24T04:19:10.137Z,0.00
2018-02-24T04:20:10.047Z,0.00
2018-02-24T04:21:09.955Z,0.00
2018-02-24T04:22:09.863Z,0.00
2018-02-24T04:23:09.790Z,0.00
2018-02-24T04:24:09.708Z,0.00
2018-02-24T04:25:09.635Z,0.00
2018-02-24T04:26:09.545Z,0.00
2018-02-24T04:27:09.444Z,0.00
2018-02-24T04:28:09.352Z,0.00
2018-02-24T04:29:09.270Z,0.00
2018-02-24T04:30:09.226Z,0.00
2018-02-24T04:31:09.118Z,0.00
2018-02-24T04:32:09.034Z,0.00
2018-02-24T04:33:08.927Z,0.00
2018-02-24T04:34:08.829Z,0.00
2018-02-24T04:35:08.781Z,0.00
2018-02-24T04:36:08.684Z,0.00
2018-02-24T04:37:08.595Z,0.00
2018-02-24T04:38:08.510Z,0.00
2018-02-24T04:39:08.427Z,0.00
2018-02-24T04:40:08.328Z,0.00
2018-02-24T04:41:08.249Z,0.00
2018-02-24T04:42:08.170Z,0.00
2018-02-24T04:43:08.088Z,0.00
2018-02-24T04:44:07.972Z,0.00
2018-02-24T04:45:07.901Z,0.00
2018-02-24T04:46:07.835Z,0.00
2018-02-24T04:47:07.745Z,0.00
2018-02-24T04:48:07.646Z,0.00
2018-02-24T04:49:07.561Z,0.00
2018-02-24T04:50:07.475Z,0.00
2018-02-24T04:51:07.403Z,0.00
2018-02-24T04:52:07.292Z,0.00
2018-02-24T04:53:07.230Z,0.00
2018-02-24T04:54:07.122Z,0.00
2018-02-24T04:55:07.049Z,0.00
2018-02-24T04:56:06.957Z,0.00
2018-02-24T04:57:06.908Z,0.00
2018-02-24T04:58:06.777Z,0.00
2018-02-24T04:59:06.696Z,0.00
2018-02-24T05:00:06.671Z,0.00
2018-02-24T05:01:06.527Z,0.00
2018-02-24T05:02:06.434Z,0.00
2018-02-24T05:03:06.373Z,0.00
2018-02-24T05:04:06.258Z,0.00
2018-02-24T05:05:06.194Z,0.00
2018-02-24T05:06:06.093Z,0.00
2018-02-24T05:07:06.026Z,0.00
2018-02-24T05:08:05.942Z,0.00
2018-02-24T05:09:05.850Z,0.00
2018-02-24T05:10:05.750Z,0.00
2018-02-24T05:11:05.671Z,0.00
2018-02-24T05:12:05.578Z,0.00
2018-02-24T05:13:05.517Z,0.00
2018-02-24T05:14:05.401Z,0.00
2018-02-24T05:15:05.324Z,0.00
2018-02-24T05:16:05.232Z,0.00
2018-02-24T05:17:05.174Z,0.00
2018-02-24T05:18:05.089Z,0.00
2018-02-24T05:19:04.982Z,0.00
2018-02-24T05:20:04.928Z,0.00
2018-02-24T05:21:04.812Z,0.00
2018-02-24T05:22:04.721Z,0.00
2018-02-24T05:23:04.644Z,0.00
2018-02-24T05:24:04.549Z,0.00
2018-02-24T05:25:04.500Z,0.00
2018-02-24T05:26:04.372Z,0.00
2018-02-24T05:27:04.299Z,0.00
2018-02-24T05:28:04.203Z,0.00
2018-02-24T05:29:04.150Z,0.00
2018-02-24T05:30:04.054Z,0.00
2018-02-24T05:31:03.961Z,0.00
2018-02-24T05:32:03.863Z,0.00
2018-02-24T05:33:03.792Z,0.00
2018-02-24T05:34:03.688Z,0.00
2018-02-24T05:35:03.661Z,0.00
2018-02-24T05:36:03.523Z,0.00
2018-02-24T05:37:03.455Z,0.00
2018-02-24T05:38:03.347Z,0.00
2018-02-24T05:39:03.269Z,0.00
2018-02-24T05:40:03.195Z,0.00
2018-02-24T05:41:03.104Z,0.00
2018-02-24T05:42:03.004Z,0.00
2018-02-24T05:43:02.927Z,0.00
2018-02-24T05:44:02.841Z,0.00
2018-02-24T05:45:02.786Z,0.00
2018-02-24T05:46:02.666Z,0.00
2018-02-24T05:47:02.656Z,0.00
2018-02-24T05:48:02.507Z,0.00
2018-02-24T05:49:02.423Z,0.00
2018-02-24T05:50:02.352Z,0.00
2018-02-24T05:51:02.249Z,0.00
2018-02-24T05:52:02.150Z,0.00
2018-02-24T05:53:02.074Z,0.00
2018-02-24T05:54:01.982Z,0.00
2018-02-24T05:55:01.912Z,0.00
2018-02-24T05:56:01.809Z,0.00
2018-02-24T05:57:01.738Z,0.00
2018-02-24T05:58:01.643Z,0.00
2018-02-24T05:59:01.562Z,0.00
2018-02-24T06:00:01.490Z,0.00
2018-02-24T06:01:01.394Z,0.00
2018-02-24T06:02:01.294Z,0.00
2018-02-24T06:03:01.219Z,0.00
2018-02-24T06:04:01.125Z,0.00
2018-02-24T06:05:01.072Z,0.00
2018-02-24T06:06:00.969Z,0.00
2018-02-24T06:07:00.934Z,0.00
2018-02-24T06:08:00.778Z,0.00
2018-02-24T06:09:00.706Z,0.00
2018-02-24T06:10:00.611Z,0.00
2018-02-24T06:11:00.551Z,0.00
2018-02-24T06:12:00.432Z,0.00
2018-02-24T06:13:00.360Z,0.00
2018-02-24T06:14:00.270Z,0.00
2018-02-24T06:15:00.202Z,0.00
2018-02-24T06:16:00.129Z,0.00
2018-02-24T06:17:00.106Z,0.00
2018-02-24T06:17:59.920Z,0.00
2018-02-24T06:18:59.850Z,0.00
2018-02-24T06:19:59.746Z,0.00
2018-02-24T06:20:59.689Z,0.00
2018-02-24T06:21:59.604Z,5.63
2018-02-24T06:22:59.506Z,5.63
2018-02-24T06:23:59.414Z,5.63
2018-02-24T06:24:59.334Z,5.63
2018-02-24T06:25:59.248Z,5.63
2018-02-24T06:26:59.175Z,5.63
2018-02-24T06:27:59.064Z,5.63
2018-02-24T06:28:58.992Z,5.63
2018-02-24T06:29:58.897Z,11.25
2018-02-24T06:30:58.827Z,11.25
2018-02-24T06:31:58.753Z,11.25
2018-02-24T06:32:58.654Z,11.25
2018-02-24T06:33:58.553Z,11.25
2018-02-24T06:34:58.500Z,11.25
2018-02-24T06:35:58.383Z,16.88
2018-02-24T06:36:58.402Z,16.88
2018-02-24T06:37:58.219Z,16.88
2018-02-24T06:38:58.140Z,16.88
2018-02-24T06:39:58.042Z,16.88
2018-02-24T06:40:57.980Z,22.50
2018-02-24T06:41:57.879Z,22.50
2018-02-24T06:42:57.817Z,22.50
2018-02-24T06:43:57.703Z,22.50
2018-02-24T06:44:57.624Z,22.50
2018-02-24T06:45:57.545Z,28.13
2018-02-24T06:46:57.466Z,28.13
2018-02-24T06:47:57.386Z,28.13
2018-02-24T06:48:57.289Z,28.13
2018-02-24T06:49:57.190Z,28.13
2018-02-24T06:50:57.118Z,33.75
2018-02-24T06:51:57.029Z,33.75
2018-02-24T06:52:56.959Z,33.75
2018-02-24T06:53:56.933Z,33.75
2018-02-24T06:54:56.778Z,39.38
2018-02-24T06:55:56.696Z,39.38
2018-02-24T06:56:56.704Z,39.38
2018-02-24T06:57:56.522Z,39.38
2018-02-24T06:58:56.455Z,39.38
2018-02-24T06:59:56.337Z,45.00
2018-02-24T07:00:56.268Z,45.00
2018-02-24T07:01:56.214Z,45.00
2018-02-24T07:02:56.154Z,45.00
2018-02-24T07:03:56.013Z,50.63
2018-02-24T07:04:55.949Z,50.63
2018-02-24T07:05:55.827Z,50.63
2018-02-24T07:06:55.861Z,50.63
2018-02-24T07:07:55.681Z,50.63
2018-02-24T07:08:55.712Z,56.25
2018-02-24T07:09:55.589Z,56.25
2018-02-24T07:10:55.484Z,56.25
2018-02-24T07:11:55.327Z,56.25
2018-02-24T07:12:55.394Z,56.25
2018-02-24T07:13:55.167Z,61.88
2018-02-24T07:14:55.093Z,61.88
2018-02-24T07:15:54.968Z,61.88
2018-02-24T07:17:54.808Z,61.88
2018-02-24T07:18:54.857Z,61.88
2018-02-24T07:19:54.664Z,67.50
2018-02-24T07:20:54.626Z,67.50
2018-02-24T07:21:54.462Z,67.50
2018-02-24T07:22:54.428Z,67.50
2018-02-24T07:23:54.317Z,67.50
2018-02-24T07:24:54.263Z,73.13
2018-02-24T07:25:54.137Z,73.13
2018-02-24T07:26:54.561Z,73.13
2018-02-24T07:27:53.971Z,73.13
2018-02-24T07:28:54.703Z,73.13
2018-02-24T07:29:53.781Z,73.13
2018-02-24T07:30:53.756Z,78.75
2018-02-24T07:31:53.624Z,78.75
2018-02-24T07:32:53.586Z,78.75
2018-02-24T07:33:53.445Z,78.75
2018-02-24T07:34:53.416Z,78.75
2018-02-24T07:35:53.270Z,78.75
2018-02-24T07:36:53.308Z,84.38
2018-02-24T07:37:53.102Z,84.38
2018-02-24T07:38:53.104Z,84.38
2018-02-24T07:39:52.953Z,84.38
2018-02-24T07:40:52.939Z,84.38
2018-02-24T07:41:52.771Z,84.38
2018-02-24T07:42:52.733Z,90.00
2018-02-24T07:45:34.951Z,101.25
2018-02-24T07:46:34.771Z,112.50
2018-02-24T07:47:34.768Z,123.75
2018-02-24T07:48:34.601Z,140.63
2018-02-24T07:49:34.641Z,157.50
2018-02-24T07:50:34.476Z,168.75
2018-02-24T07:51:34.519Z,191.25
2018-02-24T07:52:34.260Z,208.13
2018-02-24T07:53:34.251Z,225.00
2018-02-24T07:54:34.088Z,247.50
2018-02-24T07:55:34.093Z,270.00
2018-02-24T07:56:33.926Z,292.50
2018-02-24T07:57:33.875Z,298.13
2018-02-24T07:58:33.771Z,303.75
2018-02-24T07:59:33.790Z,303.75
2018-02-24T08:00:33.658Z,303.75
2018-02-24T08:01:33.759Z,309.38
2018-02-24T08:02:33.407Z,309.38
2018-02-24T08:03:33.399Z,309.38
2018-02-24T08:04:33.249Z,315.00
2018-02-24T08:05:33.218Z,315.00
2018-02-24T08:06:33.110Z,315.00
2018-02-24T08:07:33.124Z,320.63
2018-02-24T08:08:32.913Z,320.63
2018-02-24T08:09:33.001Z,320.63
2018-02-24T08:10:33.467Z,326.25
2018-02-24T08:11:32.765Z,326.25
2018-02-24T08:12:32.580Z,326.25
2018-02-24T08:13:32.571Z,331.88
2018-02-24T08:14:32.423Z,331.88
2018-02-24T08:15:32.477Z,331.88
2018-02-24T08:16:32.275Z,331.88
2018-02-24T08:17:32.299Z,331.88
2018-02-24T08:18:32.089Z,331.88
2018-02-24T08:19:32.125Z,331.88
2018-02-24T08:20:31.927Z,331.88
2018-02-24T08:21:31.908Z,331.88
2018-02-24T08:22:31.777Z,331.88
2018-02-24T08:23:31.705Z,326.25
2018-02-24T08:24:31.611Z,320.63
2018-02-24T08:25:31.597Z,315.00
2018-02-24T08:26:31.482Z,315.00
2018-02-24T08:28:31.278Z,337.50
2018-02-24T08:29:31.313Z,348.75
2018-02-24T08:30:31.132Z,354.38
2018-02-24T08:31:31.134Z,354.38
2018-02-24T08:32:30.982Z,360.00
2018-02-24T08:33:30.936Z,360.00
2018-02-24T08:34:30.799Z,360.00
2018-02-24T08:35:30.881Z,360.00
2018-02-24T08:36:30.633Z,365.63
2018-02-24T08:37:30.680Z,365.63
2018-02-24T08:38:30.484Z,365.63
2018-02-24T08:39:30.457Z,371.25
2018-02-24T08:40:30.309Z,371.25
2018-02-24T08:41:30.271Z,371.25
2018-02-24T08:42:30.154Z,376.88
2018-02-24T08:43:30.541Z,376.88
2018-02-24T08:44:29.994Z,371.25
2018-02-24T08:45:29.988Z,371.25
2018-02-24T08:46:29.846Z,371.25
2018-02-24T08:47:29.798Z,354.38
2018-02-24T08:48:30.083Z,365.63
2018-02-24T08:49:29.705Z,382.50
2018-02-24T08:50:29.511Z,393.75
2018-02-24T08:51:29.513Z,393.75
2018-02-24T08:52:29.358Z,399.38
2018-02-24T08:53:29.359Z,399.38
2018-02-24T08:54:29.207Z,405.00
2018-02-24T08:55:29.235Z,405.00
2018-02-24T08:56:29.049Z,410.63
2018-02-24T08:57:29.061Z,410.63
2018-02-24T08:58:28.886Z,416.25
2018-02-24T08:59:28.884Z,416.25
2018-02-24T09:00:28.737Z,421.88
2018-02-24T09:01:28.762Z,427.50
2018-02-24T09:02:28.608Z,421.88
2018-02-24T09:03:28.507Z,427.50
2018-02-24T09:04:28.426Z,427.50
2018-02-24T09:05:28.431Z,427.50
2018-02-24T09:06:28.250Z,427.50
2018-02-24T09:07:28.300Z,433.13
2018-02-24T09:08:28.099Z,438.75
2018-02-24T09:09:28.684Z,438.75
2018-02-24T09:10:27.944Z,450.00
2018-02-24T09:11:27.904Z,444.38
2018-02-24T09:12:27.769Z,438.75
2018-02-24T09:13:27.865Z,438.75
2018-02-24T09:14:28.481Z,455.63
2018-02-24T09:15:27.653Z,472.50
2018-02-24T09:16:27.454Z,500.63
2018-02-24T09:17:27.435Z,500.63
2018-02-24T09:18:27.292Z,478.13
2018-02-24T09:19:27.281Z,461.25
2018-02-24T09:20:27.137Z,444.38
2018-02-24T09:21:27.187Z,450.00
2018-02-24T09:22:26.982Z,461.25
2018-02-24T09:24:27.065Z,500.63
2018-02-24T09:25:26.797Z,511.88
2018-02-24T09:26:26.663Z,506.25
2018-02-24T09:27:27.457Z,489.38
2018-02-24T09:28:26.559Z,461.25
2018-02-24T09:31:08.400Z,433.13
2018-02-24T09:32:08.422Z,427.50
2018-02-24T09:33:08.244Z,438.75
2018-02-24T09:34:09.128Z,444.38
2018-02-24T09:35:08.083Z,433.13
2018-02-24T09:36:08.110Z,427.50
2018-02-24T09:37:07.904Z,427.50
2018-02-24T09:38:07.918Z,444.38
2018-02-24T09:39:07.742Z,438.75
2018-02-24T09:40:07.724Z,444.38
2018-02-24T09:41:07.612Z,444.38
2018-02-24T09:42:07.637Z,450.00
2018-02-24T09:43:07.436Z,450.00
2018-02-24T09:44:07.438Z,466.88
2018-02-24T09:45:07.272Z,478.13
2018-02-24T09:46:07.316Z,495.00
2018-02-24T09:47:07.135Z,506.25
2018-02-24T09:48:07.166Z,523.13
2018-02-24T09:49:06.983Z,523.13
2018-02-24T09:50:07.005Z,534.38
2018-02-24T09:51:06.844Z,534.38
2018-02-24T09:52:06.883Z,534.38
2018-02-24T09:53:06.656Z,545.63
2018-02-24T09:54:07.063Z,551.25
2018-02-24T09:55:06.500Z,556.88
2018-02-24T09:56:07.248Z,562.50
2018-02-24T09:59:30.595Z,556.88
2018-02-24T10:00:30.365Z,540.00
2018-02-24T10:01:31.188Z,545.63
2018-02-24T10:02:30.216Z,540.00
2018-02-24T10:03:30.196Z,551.25
2018-02-24T10:04:30.063Z,556.88
2018-02-24T10:05:30.186Z,556.88
2018-02-24T10:06:29.924Z,540.00
2018-02-24T10:07:29.950Z,495.00
2018-02-24T10:08:29.752Z,472.50
2018-02-24T10:09:29.725Z,399.38
2018-02-24T10:10:29.619Z,455.63
2018-02-24T10:11:29.632Z,483.75
2018-02-24T10:12:29.445Z,483.75
2018-02-24T10:13:29.451Z,495.00
2018-02-24T10:14:29.321Z,466.88
2018-02-24T10:15:29.264Z,466.88
2018-02-24T10:16:29.122Z,495.00
2018-02-24T10:17:29.194Z,534.38
2018-02-24T10:18:28.999Z,579.38
2018-02-24T10:21:10.889Z,691.88
2018-02-24T10:22:10.858Z,776.25
2018-02-24T10:23:10.768Z,855.00
2018-02-24T10:24:10.666Z,1001.25
2018-02-24T10:25:10.587Z,1091.25
2018-02-24T10:26:10.679Z,1203.75
2018-02-24T10:27:10.442Z,1569.38
2018-02-24T10:28:10.476Z,1980.00
2018-02-24T10:29:10.344Z,2570.63
2018-02-24T10:30:10.308Z,2745.00
2018-02-24T10:31:10.109Z,2745.00
2018-02-24T10:32:10.114Z,2705.63
2018-02-24T10:33:09.986Z,2548.13
2018-02-24T10:34:09.966Z,2514.38
2018-02-24T10:35:09.803Z,2716.88
2018-02-24T10:36:09.847Z,2840.63
2018-02-24T10:37:09.676Z,2840.63
2018-02-24T10:38:09.670Z,2610.00
2018-02-24T10:39:09.490Z,2587.50
2018-02-24T10:40:09.617Z,2806.88
2018-02-24T10:41:09.340Z,2700.00
2018-02-24T10:42:09.451Z,2671.88
2018-02-24T10:43:09.213Z,2795.63
2018-02-24T10:44:09.710Z,2750.63
2018-02-24T10:45:09.040Z,3015.00
2018-02-24T10:47:51.515Z,2846.25
2018-02-24T10:48:50.917Z,2863.13
2018-02-24T10:49:50.781Z,2801.25
2018-02-24T10:50:50.781Z,3217.50
2018-02-24T10:51:50.592Z,3262.50
2018-02-24T10:52:50.604Z,3144.38
2018-02-24T10:53:50.457Z,3386.25
2018-02-24T10:54:50.414Z,3178.13
2018-02-24T10:55:50.312Z,3088.13
2018-02-24T10:56:50.313Z,3223.13
2018-02-24T10:57:50.127Z,3060.00
2018-02-24T10:58:50.141Z,3116.25
2018-02-24T10:59:49.990Z,3318.75
2018-02-24T11:00:50.035Z,3054.38
2018-02-24T11:01:49.856Z,2857.50
2018-02-24T11:02:49.843Z,3116.25
2018-02-24T11:03:49.657Z,3166.88
2018-02-24T11:04:49.717Z,3060.00
2018-02-24T11:16:12.849Z,3166.88
2018-02-24T11:17:12.860Z,3583.13
2018-02-24T11:18:12.678Z,3313.13
2018-02-24T11:19:13.089Z,2947.50
2018-02-24T11:20:12.506Z,3493.13
2018-02-24T11:22:12.384Z,3105.00
2018-02-24T11:23:12.392Z,3420.00
2018-02-24T11:24:12.211Z,3290.63
2018-02-24T11:25:12.207Z,3178.13
2018-02-24T11:26:12.053Z,3656.25
2018-02-24T11:27:12.089Z,3211.88
2018-02-24T11:28:11.872Z,3031.88
2018-02-24T11:29:11.972Z,3526.88
2018-02-24T11:30:11.724Z,3493.13
2018-02-24T11:31:11.723Z,3144.38
2018-02-24T11:32:11.592Z,3515.63
2018-02-24T11:33:11.527Z,3335.63
2018-02-24T11:34:11.450Z,3026.25
2018-02-24T11:35:11.503Z,3121.88
2018-02-24T11:36:11.292Z,3285.00
2018-02-24T11:38:53.413Z,3375.00
2018-02-24T11:39:53.457Z,3065.63
2018-02-24T11:40:53.300Z,2913.75
2018-02-24T11:41:53.261Z,3166.88
2018-02-24T11:42:53.109Z,3037.50
2018-02-24T11:43:53.104Z,2790.00
2018-02-24T11:44:52.946Z,2733.75
2018-02-24T11:45:52.989Z,2896.88
2018-02-24T11:46:52.881Z,2722.50
2018-02-24T11:47:52.792Z,2666.25
2018-02-24T11:48:52.636Z,2919.38
2018-02-24T11:49:52.717Z,2621.25
2018-02-24T11:50:52.477Z,2356.88
2018-02-24T11:51:52.560Z,2458.13
2018-02-24T11:52:52.326Z,2424.38
2018-02-24T11:53:52.318Z,2373.75
2018-02-24T11:54:52.191Z,2536.88
2018-02-24T11:55:52.996Z,2491.88
2018-02-24T11:56:52.034Z,2396.25
2018-02-24T11:57:52.035Z,2373.75
2018-02-24T11:58:51.910Z,2278.13
2018-02-24T11:59:51.855Z,2340.00
2018-02-24T12:00:51.693Z,2362.50
2018-02-24T12:01:51.754Z,2131.88
2018-02-24T12:02:51.679Z,2120.63
2018-02-24T12:04:51.388Z,2205.00
2018-02-24T12:05:51.383Z,2143.13
2018-02-24T12:06:51.238Z,2148.75
2018-02-24T12:07:51.218Z,2053.13
2018-02-24T12:08:51.239Z,2070.00
2018-02-24T12:09:51.093Z,2255.63
2018-02-24T12:10:50.940Z,2171.25
2018-02-24T12:11:50.900Z,1861.88
2018-02-24T12:12:50.773Z,1805.63
2018-02-24T12:13:50.732Z,2058.75
2018-02-24T12:14:50.615Z,1996.88
2018-02-24T12:15:50.628Z,1935.00
2018-02-24T12:16:50.475Z,2160.00
2018-02-24T12:17:50.495Z,2328.75
2018-02-24T12:18:50.299Z,2041.88
2018-02-24T12:19:50.389Z,2109.38
2018-02-24T12:20:50.149Z,2188.13
2018-02-24T12:21:50.075Z,2064.38
2018-02-24T12:22:50.016Z,1811.25
2018-02-24T12:23:49.930Z,1535.63
2018-02-24T12:24:49.847Z,579.38
2018-02-24T12:25:49.759Z,303.75
2018-02-24T12:26:49.680Z,264.38
2018-02-24T12:27:49.609Z,247.50
2018-02-24T12:30:14.471Z,213.75
2018-02-24T12:31:14.364Z,208.13
2018-02-24T12:32:14.270Z,208.13
2018-02-24T12:33:14.283Z,208.13
2018-02-24T12:34:14.125Z,208.13
2018-02-24T12:35:14.051Z,208.13
2018-02-24T12:36:13.979Z,208.13
2018-02-24T12:37:13.885Z,208.13
2018-02-24T12:38:13.847Z,208.13
2018-02-24T12:39:13.848Z,208.13
2018-02-24T12:40:13.655Z,208.13
2018-02-24T12:41:13.621Z,202.50
2018-02-24T12:42:13.482Z,202.50
2018-02-24T12:43:13.431Z,196.88
2018-02-24T12:44:13.349Z,196.88
2018-02-24T12:45:13.282Z,196.88
2018-02-24T12:46:13.163Z,191.25
2018-02-24T12:47:13.115Z,196.88
2018-02-24T12:48:12.991Z,196.88
2018-02-24T12:49:12.952Z,196.88
2018-02-24T12:50:12.862Z,191.25
2018-02-24T12:51:12.878Z,191.25
2018-02-24T12:52:12.667Z,185.63
2018-02-24T12:53:12.676Z,185.63
2018-02-24T12:54:12.505Z,185.63
2018-02-24T12:55:12.522Z,185.63
2018-02-24T12:56:12.355Z,185.63
2018-02-24T12:57:12.303Z,185.63
2018-02-24T12:58:12.185Z,185.63
2018-02-24T12:59:12.199Z,185.63
2018-02-24T13:00:12.050Z,185.63
2018-02-24T13:01:12.049Z,185.63
2018-02-24T13:02:11.855Z,180.00
2018-02-24T13:03:11.857Z,174.38
2018-02-24T13:04:11.720Z,174.38
2018-02-24T13:05:11.742Z,168.75
2018-02-24T13:06:11.543Z,180.00
2018-02-24T13:08:11.408Z,174.38
2018-02-24T13:09:11.309Z,168.75
2018-02-24T13:10:11.220Z,163.13
2018-02-24T13:11:11.206Z,168.75
2018-02-24T13:12:11.068Z,174.38
2018-02-24T13:13:11.089Z,174.38
2018-02-24T13:14:10.881Z,174.38
2018-02-24T13:15:10.903Z,180.00
2018-02-24T13:16:10.737Z,185.63
2018-02-24T13:17:10.704Z,185.63
2018-02-24T13:18:10.553Z,191.25
2018-02-24T13:19:10.608Z,191.25
2018-02-24T13:20:10.403Z,191.25